Time;durP1;ratioP1;P1;durP2;ratioP2;P2;SDS_P1;SDS_P2;PMS_P1;PMS_P2;Temp;Humidity;BMP_temperature;BMP_pressure;BME280_temperature;BME280_humidity;BME280_pressure;Samples;Min_cycle;Max_cycle;Signal;HPM_P1;HPM_P2
2023/04/17 00:02:39;;;;;;;39.75;24.02;;;;;;;14.77;nan;100078.16;5044898;28;20044;-85
2023/04/17 00:05:25;;;;;;;43.13;25.05;;;;;;;14.79;nan;100077.97;5042425;28;20083;-85
2023/04/17 00:08:09;;;;;;;35.00;22.92;;;;;;;14.82;nan;100081.00;5039040;28;20455;-84
2023/04/17 00:10:53;;;;;;;45.63;25.90;;;;;;;14.64;nan;100085.97;5044314;28;20449;-83
2023/04/17 00:13:37;;;;;;;42.95;24.92;;;;;;;14.65;nan;100080.50;5038942;28;20082;-83
2023/04/17 00:16:21;;;;;;;39.05;24.70;;;;;;;14.62;nan;100085.38;5041888;28;20426;-84
2023/04/17 00:19:05;;;;;;;40.10;24.38;;;;;;;14.63;nan;100079.91;5041625;28;20040;-83
2023/04/17 00:21:49;;;;;;;41.08;24.83;;;;;;;14.69;nan;100086.22;5042691;28;20502;-84
2023/04/17 00:24:32;;;;;;;;;;;;;;;14.71;nan;100095.59;5043014;28;20040;-83
2023/04/17 00:27:17;;;;;;;41.92;23.92;;;;;;;14.67;nan;100089.06;5041338;28;19966;-82
2023/04/17 00:30:00;;;;;;;45.55;25.23;;;;;;;14.66;nan;100090.06;5043191;28;20063;-83
2023/04/17 00:32:44;;;;;;;43.17;25.55;;;;;;;14.63;nan;100100.19;5044547;28;20052;-81
2023/04/17 00:35:28;;;;;;;43.83;25.35;;;;;;;14.60;nan;100088.22;5041106;28;20048;-82
2023/04/17 00:38:12;;;;;;;42.58;25.02;;;;;;;14.61;nan;100089.84;5042737;28;20092;-82
2023/04/17 00:40:56;;;;;;;39.55;23.05;;;;;;;14.56;nan;100092.25;5042211;28;20090;-81
2023/04/17 00:43:40;;;;;;;42.63;23.38;;;;;;;14.55;nan;100083.50;5041429;28;20068;-81
2023/04/17 00:46:24;;;;;;;39.65;24.38;;;;;;;14.60;nan;100082.09;5034891;28;20052;-81
2023/04/17 00:49:09;;;;;;;37.97;23.25;;;;;;;14.55;nan;100082.72;5043217;28;21876;-81
2023/04/17 00:51:53;;;;;;;37.85;24.05;;;;;;;14.49;nan;100091.38;5036378;28;20706;-82
2023/04/17 00:54:37;;;;;;;45.60;25.77;;;;;;;14.46;nan;100084.69;5036825;28;20146;-81
2023/04/17 00:57:23;;;;;;;43.10;24.95;;;;;;;14.54;nan;100083.69;5038885;28;20140;-84
2023/04/17 01:00:09;;;;;;;40.00;25.02;;;;;;;14.61;nan;100084.56;5042952;28;20087;-80
2023/04/17 01:02:56;;;;;;;43.35;25.08;;;;;;;14.60;nan;100085.56;5045341;28;20047;-82
2023/04/17 01:05:40;;;;;;;40.55;24.60;;;;;;;14.41;nan;100098.47;5043095;28;20035;-83
2023/04/17 01:08:24;;;;;;;40.45;24.92;;;;;;;14.46;nan;100089.13;5044680;28;20068;-83
2023/04/17 01:11:10;;;;;;;39.70;24.23;;;;;;;14.41;nan;100089.72;5045283;28;20147;-83
2023/04/17 01:13:54;;;;;;;37.92;23.45;;;;;;;14.45;nan;100090.97;5038385;28;20036;-83
2023/04/17 01:16:39;;;;;;;;;;;;;;;14.45;nan;100083.06;5038077;28;20055;-83
2023/04/17 01:19:23;;;;;;;40.58;24.38;;;;;;;14.51;nan;100084.09;5042933;28;20441;-83
2023/04/17 01:22:07;;;;;;;44.80;25.00;;;;;;;14.55;nan;100080.88;5044237;28;20607;-84
2023/04/17 01:24:51;;;;;;;45.15;24.40;;;;;;;14.57;nan;100083.31;5041494;28;20048;-85
2023/04/17 01:27:35;;;;;;;41.33;26.17;;;;;;;14.45;nan;100080.41;5043110;28;20044;-85
2023/04/17 01:30:20;;;;;;;44.95;26.35;;;;;;;14.37;nan;100084.03;5039454;28;20044;-84
2023/04/17 01:33:04;;;;;;;40.20;24.52;;;;;;;14.47;nan;100077.56;5042694;28;20143;-85
2023/04/17 01:35:48;;;;;;;38.13;24.55;;;;;;;14.42;nan;100086.91;5037029;28;20041;-85
2023/04/17 01:38:32;;;;;;;41.28;25.55;;;;;;;14.52;nan;100091.84;5038910;28;20035;-84
2023/04/17 01:41:16;;;;;;;39.88;23.10;;;;;;;14.49;nan;100092.22;5039499;28;20119;-84
2023/04/17 01:44:00;;;;;;;41.10;24.83;;;;;;;14.52;nan;100091.00;5043678;28;20052;-85
2023/04/17 01:46:44;;;;;;;37.63;24.00;;;;;;;14.61;nan;100089.84;5039286;28;20136;-83
2023/04/17 01:49:28;;;;;;;44.03;25.75;;;;;;;14.43;nan;100092.97;5040497;28;20048;-84
2023/04/17 01:52:12;;;;;;;37.88;23.42;;;;;;;14.49;nan;100092.22;5041715;28;20510;-84
2023/04/17 01:54:56;;;;;;;34.65;24.20;;;;;;;14.51;nan;100092.84;5042842;28;20388;-84
2023/04/17 01:57:41;;;;;;;38.55;23.75;;;;;;;14.51;nan;100089.38;5036611;28;20037;-83
2023/04/17 02:00:25;;;;;;;38.78;24.75;;;;;;;14.48;nan;100103.81;5039114;28;20052;-83
2023/04/17 02:03:09;;;;;;;43.03;25.95;;;;;;;14.51;nan;100100.75;5038975;28;20135;-88
2023/04/17 02:05:53;;;;;;;38.45;25.35;;;;;;;14.54;nan;100099.53;5044485;28;20094;-83
2023/04/17 02:08:37;;;;;;;39.85;24.60;;;;;;;14.49;nan;100107.25;5039022;28;20044;-82
2023/04/17 02:11:21;;;;;;;35.80;24.65;;;;;;;14.57;nan;100109.75;5039532;28;20452;-82
2023/04/17 02:14:05;;;;;;;42.08;26.58;;;;;;;14.64;nan;100107.13;5038446;28;20028;-82
2023/04/17 02:16:49;;;;;;;39.17;24.17;;;;;;;14.58;nan;100108.72;5046279;28;20071;-82
2023/04/17 02:19:34;;;;;;;40.03;24.75;;;;;;;14.52;nan;100106.84;5045534;28;20052;-85
2023/04/17 02:22:18;;;;;;;34.65;24.15;;;;;;;14.54;nan;100110.94;5039482;28;20139;-85
2023/04/17 02:25:02;;;;;;;36.70;22.92;;;;;;;14.55;nan;100104.66;5040500;28;20064;-88
2023/04/17 02:27:46;;;;;;;34.88;23.55;;;;;;;14.53;nan;100108.47;5044594;28;20052;-87
2023/04/17 02:30:30;;;;;;;37.92;24.70;;;;;;;14.48;nan;100106.44;5038160;28;20059;-88
2023/04/17 02:33:15;;;;;;;33.88;22.95;;;;;;;14.51;nan;100095.47;5044350;28;20032;-86
2023/04/17 02:35:59;;;;;;;36.35;22.83;;;;;;;14.60;nan;100109.34;5038921;28;20099;-85
2023/04/17 02:38:44;;;;;;;37.13;23.17;;;;;;;14.32;nan;100102.25;5042342;28;20075;-84
2023/04/17 02:41:27;;;;;;;38.72;23.35;;;;;;;14.52;nan;100096.28;5041710;28;20095;-84
2023/04/17 02:44:17;;;;;;;37.13;22.95;;;;;;;14.32;nan;100096.16;5037071;28;20076;-82
2023/04/17 02:47:01;;;;;;;32.28;21.70;;;;;;;14.44;nan;100105.19;5035004;28;20048;-83
2023/04/17 02:49:45;;;;;;;36.92;22.77;;;;;;;14.25;nan;100096.94;5037700;28;20096;-83
2023/04/17 02:52:30;;;;;;;35.08;23.95;;;;;;;14.19;nan;100099.53;5044717;28;20557;-80
2023/04/17 02:55:14;;;;;;;40.40;24.27;;;;;;;14.34;nan;100096.78;5037184;28;20051;-81
2023/04/17 02:57:58;;;;;;;38.95;25.45;;;;;;;14.32;nan;100096.97;5038635;28;20068;-80
2023/04/17 03:00:42;;;;;;;39.78;25.23;;;;;;;14.30;nan;100088.44;5038633;28;20060;-80
2023/04/17 03:03:26;;;;;;;38.33;25.55;;;;;;;14.41;nan;100087.91;5031476;28;20040;-81
2023/04/17 03:06:11;;;;;;;39.45;25.38;;;;;;;14.43;nan;100080.59;5038424;28;20043;-80
2023/04/17 03:08:55;;;;;;;35.67;25.30;;;;;;;14.45;nan;100079.59;5040548;28;20044;-80
2023/04/17 03:11:39;;;;;;;36.78;24.20;;;;;;;14.43;nan;100077.13;5035611;28;20047;-80
2023/04/17 03:14:23;;;;;;;38.58;25.67;;;;;;;14.46;nan;100083.84;5036552;28;20071;-81
2023/04/17 03:17:08;;;;;;;35.55;24.63;;;;;;;14.38;nan;100084.81;5043739;28;20398;-80
2023/04/17 03:19:52;;;;;;;39.25;24.73;;;;;;;14.40;nan;100081.00;5036503;28;20056;-82
2023/04/17 03:22:36;;;;;;;36.38;24.88;;;;;;;14.43;nan;100085.88;5038593;28;20091;-83
2023/04/17 03:25:20;;;;;;;36.90;25.52;;;;;;;14.47;nan;100082.84;5040732;28;20048;-84
2023/04/17 03:28:04;;;;;;;38.03;24.23;;;;;;;14.37;nan;100072.63;5036874;28;20494;-82
2023/04/17 03:30:49;;;;;;;37.92;24.27;;;;;;;14.39;nan;100078.53;5038409;28;20376;-81
2023/04/17 03:33:34;;;;;;;37.25;23.90;;;;;;;14.27;nan;100073.81;5037859;28;20068;-83
2023/04/17 03:36:17;;;;;;;34.38;24.10;;;;;;;14.21;nan;100079.03;5034105;28;20052;-85
2023/04/17 03:39:01;;;;;;;35.30;24.27;;;;;;;14.16;nan;100076.16;5038160;28;20045;-84
2023/04/17 03:41:46;;;;;;;35.70;24.25;;;;;;;14.02;nan;100077.88;5037521;28;20048;-85
2023/04/17 03:44:29;;;;;;;38.30;24.17;;;;;;;13.92;nan;100076.38;5037103;28;20040;-85
2023/04/17 03:47:14;;;;;;;37.22;24.35;;;;;;;13.81;nan;100080.38;5036074;28;20144;-85
2023/04/17 03:49:58;;;;;;;36.30;24.45;;;;;;;13.73;nan;100077.03;5047934;28;20063;-86
2023/04/17 03:52:42;;;;;;;36.92;24.85;;;;;;;13.64;nan;100076.34;5042005;28;20040;-85
2023/04/17 03:55:26;;;;;;;35.70;24.50;;;;;;;13.63;nan;100072.06;5042692;28;20490;-85
2023/04/17 03:58:11;;;;;;;40.25;23.75;;;;;;;13.60;nan;100061.91;5040255;28;20060;-87
2023/04/17 04:00:57;;;;;;;37.17;23.13;;;;;;;13.55;nan;100065.91;5043109;28;20083;-88
2023/04/17 04:03:41;;;;;;;37.42;24.23;;;;;;;13.37;nan;100070.78;5038935;28;20047;-86
2023/04/17 04:06:28;;;;;;;36.97;23.35;;;;;;;13.18;nan;100074.84;5041388;28;20176;-84
2023/04/17 04:09:12;;;;;;;34.75;23.83;;;;;;;13.07;nan;100076.13;5045796;28;20040;-84
2023/04/17 04:11:57;;;;;;;39.70;24.90;;;;;;;12.93;nan;100078.59;5042848;28;20075;-85
2023/04/17 04:14:41;;;;;;;36.40;22.85;;;;;;;12.90;nan;100083.44;5048920;28;20110;-83
2023/04/17 04:17:25;;;;;;;38.40;24.70;;;;;;;12.92;nan;100090.16;5043455;28;20130;-84
2023/04/17 04:20:10;;;;;;;37.10;24.65;;;;;;;12.99;nan;100087.59;5038412;28;21744;-84
2023/04/17 04:22:56;;;;;;;41.10;26.77;;;;;;;13.14;nan;100095.47;5038772;28;20095;-84
2023/04/17 04:25:42;;;;;;;38.80;24.40;;;;;;;13.31;nan;100097.88;5044509;28;20072;-84
2023/04/17 04:28:29;;;;;;;42.33;28.20;;;;;;;13.46;nan;100098.69;5042277;28;20069;-83
2023/04/17 04:31:17;;;;;;;44.90;28.13;;;;;;;13.63;nan;100098.47;5037039;28;20079;-84
2023/04/17 04:34:01;;;;;;;43.53;29.13;;;;;;;13.65;nan;100112.28;5048873;28;20403;-82
2023/04/17 04:36:48;;;;;;;48.78;29.48;;;;;;;13.82;nan;100108.38;5042869;28;20075;-84
2023/04/17 04:39:33;;;;;;;41.80;27.25;;;;;;;13.83;nan;100110.00;5038830;28;20048;-83
2023/04/17 04:42:20;;;;;;;39.33;25.52;;;;;;;13.87;nan;100114.91;5044297;28;20052;-83
2023/04/17 04:45:05;;;;;;;42.97;26.42;;;;;;;13.86;nan;100129.94;5042015;28;20053;-83
2023/04/17 04:47:49;;;;;;;44.60;27.10;;;;;;;13.93;nan;100130.81;5042911;28;20159;-82
2023/04/17 04:50:34;;;;;;;40.13;26.85;;;;;;;13.99;nan;100135.31;5040620;28;20044;-82
2023/04/17 04:53:18;;;;;;;46.17;28.90;;;;;;;13.95;nan;100141.16;5040148;28;20498;-82
2023/04/17 04:56:02;;;;;;;43.30;28.17;;;;;;;13.93;nan;100133.44;5047414;28;20039;-83
2023/04/17 04:58:47;;;;;;;42.63;26.83;;;;;;;14.07;nan;100147.56;5040646;28;20398;-82
2023/04/17 05:01:31;;;;;;;46.58;29.52;;;;;;;14.05;nan;100148.75;5038865;28;20052;-82
2023/04/17 05:04:15;;;;;;;46.28;29.08;;;;;;;14.09;nan;100150.84;5043851;28;20452;-82
2023/04/17 05:06:59;;;;;;;46.85;29.27;;;;;;;14.13;nan;100152.09;5043758;28;20044;-83
2023/04/17 05:09:43;;;;;;;43.22;28.10;;;;;;;14.23;nan;100166.81;5039637;28;20060;-81
2023/04/17 05:12:27;;;;;;;46.58;28.88;;;;;;;14.23;nan;100162.31;5040181;28;20086;-80
2023/04/17 05:15:11;;;;;;;45.50;28.98;;;;;;;14.20;nan;100172.47;5040546;28;20056;-81
2023/04/17 05:17:55;;;;;;;45.53;28.83;;;;;;;14.19;nan;100169.00;5038393;28;20043;-82
2023/04/17 05:20:39;;;;;;;;;;;;;;;14.17;nan;100172.84;5041967;28;20048;-81
2023/04/17 05:23:23;;;;;;;42.75;27.80;;;;;;;14.17;nan;100172.84;5064121;28;20417;-83
2023/04/17 05:26:07;;;;;;;43.78;28.83;;;;;;;14.24;nan;100168.44;5042636;28;20043;-83
2023/04/17 05:28:51;;;;;;;42.65;27.88;;;;;;;14.27;nan;100173.31;5037990;28;20048;-84
2023/04/17 05:31:35;;;;;;;;;;;;;;;14.32;nan;100181.50;5037153;28;20049;-82
2023/04/17 05:34:19;;;;;;;46.30;28.00;;;;;;;14.28;nan;100180.25;5042741;28;19923;-84
2023/04/17 05:37:03;;;;;;;44.65;28.25;;;;;;;14.33;nan;100177.03;5042332;28;20044;-83
2023/04/17 05:39:47;;;;;;;48.65;28.17;;;;;;;14.37;nan;100184.41;5040424;28;20503;-82
2023/04/17 05:42:31;;;;;;;44.75;28.40;;;;;;;14.41;nan;100174.25;5037647;28;20503;-82
2023/04/17 05:45:15;;;;;;;49.90;29.58;;;;;;;14.44;nan;100179.13;5041145;28;20044;-84
2023/04/17 05:47:59;;;;;;;40.67;27.23;;;;;;;14.43;nan;100175.69;5038755;28;20522;-83
2023/04/17 05:50:43;;;;;;;46.72;28.67;;;;;;;14.54;nan;100181.44;5043333;28;20110;-84
2023/04/17 05:53:29;;;;;;;44.72;27.25;;;;;;;14.51;nan;100169.44;5041631;28;20115;-85
2023/04/17 05:56:13;;;;;;;44.50;27.20;;;;;;;14.56;nan;100176.81;5041813;28;20048;-85
2023/04/17 05:59:00;;;;;;;44.58;27.20;;;;;;;14.66;nan;100174.63;5040933;28;20099;-85
2023/04/17 06:01:44;;;;;;;46.85;28.85;;;;;;;14.74;nan;100176.34;5042276;28;20044;-83
2023/04/17 06:04:28;;;;;;;49.05;31.13;;;;;;;14.84;nan;100184.75;5035548;28;20048;-83
2023/04/17 06:07:12;;;;;;;52.10;31.65;;;;;;;14.88;nan;100187.81;5032547;28;20187;-79
2023/04/17 06:09:56;;;;;;;66.40;39.22;;;;;;;14.96;nan;100187.66;5039398;28;20067;-81
2023/04/17 06:12:41;;;;;;;63.60;38.58;;;;;;;15.03;nan;100186.88;5036598;28;20451;-83
2023/04/17 06:15:26;;;;;;;56.38;37.30;;;;;;;15.06;nan;100191.75;5044590;28;20443;-82
2023/04/17 06:18:16;;;;;;;54.00;32.47;;;;;;;15.04;nan;100185.84;5037840;28;20084;-83
2023/04/17 06:21:00;;;;;;;60.67;35.63;;;;;;;15.05;nan;100192.78;5039717;28;20167;-80
2023/04/17 06:23:45;;;;;;;60.42;35.33;;;;;;;15.17;nan;100190.38;5038539;28;20044;-81
2023/04/17 06:26:29;;;;;;;55.90;33.63;;;;;;;15.17;nan;100196.50;5038516;28;20073;-80
2023/04/17 06:29:14;;;;;;;54.78;31.45;;;;;;;15.16;nan;100197.53;5032861;28;20116;-81
2023/04/17 06:31:58;;;;;;;61.55;36.33;;;;;;;15.19;nan;100206.88;5042468;28;20151;-82
2023/04/17 06:34:42;;;;;;;58.30;35.35;;;;;;;15.32;nan;100211.41;5031990;28;20168;-79
2023/04/17 06:37:26;;;;;;;50.53;31.73;;;;;;;15.37;nan;100203.72;5031560;28;20095;-81
2023/04/17 06:40:13;;;;;;;50.72;31.38;;;;;;;15.41;nan;100205.75;5032982;28;20055;-78
2023/04/17 06:42:58;;;;;;;53.65;32.08;;;;;;;15.47;nan;100212.09;5030487;28;20036;-81
2023/04/17 06:45:42;;;;;;;50.03;31.67;;;;;;;15.46;nan;100207.81;5040559;28;20061;-82
2023/04/17 06:48:25;;;;;;;60.92;37.40;;;;;;;15.44;nan;100209.03;5036177;28;20510;-81
2023/04/17 06:51:10;;;;;;;53.53;35.28;;;;;;;15.44;nan;100207.19;5041350;28;20048;-80
2023/04/17 06:53:53;;;;;;;50.78;32.33;;;;;;;15.58;nan;100216.00;5035811;28;20091;-81
2023/04/17 06:56:37;;;;;;;53.88;32.42;;;;;;;15.64;nan;100209.09;5033853;28;20035;-81
2023/04/17 06:59:21;;;;;;;49.97;31.50;;;;;;;15.71;nan;100220.50;5040789;28;20044;-80
2023/04/17 07:02:06;;;;;;;49.30;30.80;;;;;;;15.82;nan;100222.59;5033515;28;20152;-81
2023/04/17 07:04:53;;;;;;;48.28;30.92;;;;;;;16.01;nan;100225.50;5038893;28;20075;-81
2023/04/17 07:07:38;;;;;;;50.03;31.65;;;;;;;16.07;nan;100222.03;5039135;28;20089;-81
2023/04/17 07:10:22;;;;;;;48.22;31.33;;;;;;;16.25;nan;100232.06;5039226;28;20443;-80
2023/04/17 07:13:06;;;;;;;49.78;31.27;;;;;;;16.33;nan;100230.22;5042460;28;20036;-81
2023/04/17 07:15:52;;;;;;;49.72;30.70;;;;;;;16.44;nan;100229.63;5038084;28;20053;-81
2023/04/17 07:18:37;;;;;;;41.25;29.08;;;;;;;16.49;nan;100235.13;5038833;28;20068;-79
2023/04/17 07:21:21;;;;;;;42.85;27.95;;;;;;;16.61;nan;100234.53;5038596;28;20060;-79
2023/04/17 07:24:05;;;;;;;47.53;28.48;;;;;;;16.64;nan;100244.72;5042199;28;20513;-80
2023/04/17 07:26:49;;;;;;;44.22;28.63;;;;;;;16.60;nan;100241.66;5041608;28;20082;-80
2023/04/17 07:29:34;;;;;;;44.17;28.17;;;;;;;16.69;nan;100248.34;5033721;28;20043;-82
2023/04/17 07:32:20;;;;;;;42.67;27.60;;;;;;;16.55;nan;100246.75;5035479;28;20406;-81
2023/04/17 07:35:05;;;;;;;39.55;26.33;;;;;;;16.62;nan;100250.22;5034973;28;20052;-79
2023/04/17 07:37:49;;;;;;;45.70;27.70;;;;;;;16.69;nan;100258.97;5033606;28;20044;-81
2023/04/17 07:40:34;;;;;;;40.72;27.02;;;;;;;16.79;nan;100257.75;5039338;28;20064;-81
2023/04/17 07:43:18;;;;;;;39.17;26.27;;;;;;;16.75;nan;100267.13;5039635;28;20048;-80
2023/04/17 07:46:03;;;;;;;43.08;27.83;;;;;;;16.75;nan;100265.28;5039468;28;20102;-80
2023/04/17 07:48:47;;;;;;;44.10;27.63;;;;;;;16.70;nan;100270.41;5044279;28;20044;-80
2023/04/17 07:51:31;;;;;;;46.03;27.80;;;;;;;16.62;nan;100279.38;5040325;28;20068;-81
2023/04/17 07:54:15;;;;;;;44.25;27.05;;;;;;;16.55;nan;100283.88;5048202;28;20060;-81
2023/04/17 07:57:01;;;;;;;44.20;27.90;;;;;;;16.50;nan;100275.69;5042523;28;20136;-80
2023/04/17 07:59:46;;;;;;;41.97;28.85;;;;;;;16.66;nan;100285.88;5029056;28;20106;-80
2023/04/17 08:02:30;;;;;;;42.50;27.15;;;;;;;16.77;nan;100287.09;5033340;28;20051;-81
2023/04/17 08:05:14;;;;;;;43.60;28.50;;;;;;;16.92;nan;100289.56;5031440;28;20086;-81
2023/04/17 08:08:01;;;;;;;38.13;25.85;;;;;;;16.91;nan;100287.94;5038697;28;20052;-83
2023/04/17 08:10:45;;;;;;;40.70;27.25;;;;;;;16.96;nan;100290.78;5035571;28;20060;-81
2023/04/17 08:13:32;;;;;;;46.15;28.90;;;;;;;17.01;nan;100292.03;5042544;28;20159;-80
2023/04/17 08:16:16;;;;;;;39.63;26.85;;;;;;;17.12;nan;100299.38;5036926;28;20056;-80
2023/04/17 08:19:00;;;;;;;;;;;;;;;17.09;nan;100294.44;5041210;28;20072;-79
2023/04/17 08:21:48;;;;;;;83.35;30.98;;;;;;;17.19;nan;100294.84;5033306;28;19920;-80
2023/04/17 08:24:32;;;;;;;123.53;34.88;;;;;;;17.12;nan;100299.38;5038683;28;20068;-81
2023/04/17 08:27:16;;;;;;;147.35;35.38;;;;;;;17.18;nan;100301.19;5039857;28;20035;-80
2023/04/17 08:30:00;;;;;;;198.57;42.92;;;;;;;17.17;nan;100304.84;5038933;28;20139;-80
2023/04/17 08:32:46;;;;;;;224.13;49.55;;;;;;;17.15;nan;100303.44;5034970;28;20059;-80
2023/04/17 08:35:30;;;;;;;73.90;31.88;;;;;;;17.10;nan;100306.72;5041140;28;20047;-80
2023/04/17 08:38:15;;;;;;;52.10;28.33;;;;;;;17.32;nan;100309.13;5040129;28;20048;-80
2023/04/17 08:41:04;;;;;;;46.50;28.88;;;;;;;17.30;nan;100306.66;5035756;28;20044;-79
2023/04/17 08:43:49;;;;;;;39.65;27.02;;;;;;;17.47;nan;100312.31;5041977;28;20502;-81
2023/04/17 08:46:35;;;;;;;44.85;28.45;;;;;;;17.48;nan;100310.50;5036833;28;20048;-80
2023/04/17 08:49:20;;;;;;;43.45;28.27;;;;;;;17.48;nan;100311.31;5044591;28;20040;-80
2023/04/17 08:52:06;;;;;;;41.63;28.17;;;;;;;17.33;nan;100318.72;5039926;28;20051;-80
2023/04/17 08:54:50;;;;;;;44.65;30.23;;;;;;;17.31;nan;100321.56;5036812;28;20467;-80
2023/04/17 08:57:35;;;;;;;41.92;29.73;;;;;;;17.41;nan;100319.31;5041781;28;20446;-80
2023/04/17 09:00:30;;;;;;;43.80;29.15;;;;;;;17.84;nan;100317.13;5032845;28;20546;-79
2023/04/17 09:03:14;;;;;;;40.35;27.00;;;;;;;18.41;nan;100325.19;5043194;28;20353;-79
2023/04/17 09:05:58;;;;;;;48.28;29.50;;;;;;;18.76;nan;100326.59;5042028;28;20098;-80
2023/04/17 09:08:58;;;;;;;45.47;32.50;;;;;;;18.87;nan;100322.44;5034483;28;20060;-80
2023/04/17 09:11:42;;;;;;;43.53;30.02;;;;;;;19.38;nan;100320.53;5040785;28;20087;-79
2023/04/17 09:14:30;;;;;;;46.72;33.00;;;;;;;19.74;nan;100326.06;5036850;28;20055;-79
2023/04/17 09:17:16;;;;;;;45.92;30.63;;;;;;;19.79;nan;100323.53;5040726;28;20528;-80
2023/04/17 09:20:07;;;;;;;40.20;28.52;;;;;;;19.74;nan;100328.72;5039157;28;20128;-80
2023/04/17 09:23:03;;;;;;;51.15;34.33;;;;;;;19.69;nan;100331.25;5033115;28;20039;-80
2023/04/17 09:26:05;;;;;;;38.67;28.45;;;;;;;20.12;nan;100334.81;5032029;28;20095;-80
2023/04/17 09:29:12;;;;;;;36.78;24.60;;;;;;;20.21;nan;100332.66;5038207;28;20526;-77
2023/04/17 09:31:56;;;;;;;32.47;22.98;;;;;;;20.07;nan;100340.84;5036891;28;20114;-78
2023/04/17 09:34:41;;;;;;;31.80;23.08;;;;;;;19.61;nan;100334.19;5038352;28;20099;-83
2023/04/17 09:37:46;;;;;;;32.42;23.67;;;;;;;19.46;nan;100338.06;5047629;28;20047;-82
2023/04/17 09:40:41;;;;;;;31.45;23.45;;;;;;;19.20;nan;100339.16;5042933;28;20036;-83
2023/04/17 09:43:44;;;;;;;36.35;23.67;;;;;;;19.20;nan;100345.28;5037128;28;20127;-79
2023/04/17 09:46:37;;;;;;;37.03;21.65;;;;;;;19.72;nan;100346.78;5043418;28;20120;-83
2023/04/17 09:49:25;;;;;;;32.70;22.52;;;;;;;20.59;nan;100334.16;5041577;28;20519;-80
2023/04/17 09:52:11;;;;;;;33.53;20.58;;;;;;;20.92;nan;100327.50;5039759;28;20407;-88
2023/04/17 09:54:55;;;;;;;38.15;25.52;;;;;;;21.28;nan;100345.38;5041848;28;20097;-79
2023/04/17 09:57:40;;;;;;;33.33;24.48;;;;;;;21.48;nan;100334.28;5035729;28;20118;-78
2023/04/17 10:00:26;;;;;;;26.38;19.50;;;;;;;21.87;nan;100336.44;5035815;28;20098;-80
2023/04/17 10:03:14;;;;;;;32.50;22.85;;;;;;;21.59;nan;100322.78;5035286;28;20044;-81
2023/04/17 10:05:59;;;;;;;25.20;18.98;;;;;;;22.01;nan;100327.09;5033140;28;20040;-78
2023/04/17 10:08:43;;;;;;;28.98;20.23;;;;;;;22.00;nan;100330.00;5032011;28;20056;-78
2023/04/17 10:11:30;;;;;;;24.88;18.13;;;;;;;22.00;nan;100325.44;5034396;28;20222;-78
2023/04/17 10:14:26;;;;;;;27.17;18.88;;;;;;;22.33;nan;100339.94;5033793;28;20437;-80
2023/04/17 10:17:30;;;;;;;25.00;18.48;;;;;;;22.16;nan;100336.44;5039948;28;20060;-78
2023/04/17 10:20:14;;;;;;;33.00;20.67;;;;;;;21.16;nan;100337.38;5036449;28;20454;-80
2023/04/17 10:23:00;;;;;;;27.15;18.67;;;;;;;21.52;nan;100341.59;5033022;28;20087;-81
2023/04/17 10:25:44;;;;;;;22.25;16.08;;;;;;;21.12;nan;100334.34;5033202;28;20067;-81
2023/04/17 10:28:48;;;;;;;26.35;17.65;;;;;;;21.43;nan;100327.00;5042261;28;20044;-80
2023/04/17 10:32:07;;;;;;;25.48;19.20;;;;;;;21.89;nan;100329.00;5036474;28;20123;-78
2023/04/17 10:34:53;;;;;;;21.80;15.50;;;;;;;22.46;nan;100321.97;5037075;28;20125;-78
2023/04/17 10:37:46;;;;;;;19.05;15.20;;;;;;;21.88;nan;100330.03;5037011;28;20059;-78
2023/04/17 10:40:32;;;;;;;18.27;15.13;;;;;;;22.24;nan;100328.81;5034227;28;20447;-78
2023/04/17 10:43:18;;;;;;;22.67;14.02;;;;;;;22.50;nan;100336.50;5037289;28;20076;-79
2023/04/17 10:46:13;;;;;;;18.23;13.50;;;;;;;22.09;nan;100332.03;5039244;28;20083;-79
2023/04/17 10:48:57;;;;;;;18.13;12.93;;;;;;;22.57;nan;100334.47;5036543;28;20044;-79
2023/04/17 10:51:41;;;;;;;17.20;12.48;;;;;;;22.52;nan;100329.88;5041718;28;20040;-79
2023/04/17 10:54:25;;;;;;;18.85;12.35;;;;;;;22.40;nan;100339.78;5037299;28;20125;-79
2023/04/17 10:57:10;;;;;;;18.65;12.60;;;;;;;22.32;nan;100338.31;5042315;28;20048;-79
2023/04/17 11:00:11;;;;;;;16.45;12.88;;;;;;;22.46;nan;100338.81;5042755;28;20391;-79
2023/04/17 11:02:55;;;;;;;16.83;13.00;;;;;;;22.50;nan;100339.19;5041732;28;20052;-78
2023/04/17 11:05:46;;;;;;;17.98;13.35;;;;;;;21.87;nan;100336.44;5038742;28;20110;-80
2023/04/17 11:08:30;;;;;;;19.90;13.98;;;;;;;22.09;nan;100340.06;5036824;28;20486;-80
2023/04/17 11:11:17;;;;;;;19.65;15.35;;;;;;;21.93;nan;100340.81;5036927;28;20044;-78
2023/04/17 11:14:05;;;;;;;17.90;15.57;;;;;;;21.87;nan;100341.78;5038183;28;20139;-79
2023/04/17 11:16:50;;;;;;;20.70;15.93;;;;;;;22.52;nan;100343.25;5037364;28;20047;-77
2023/04/17 11:19:35;;;;;;;20.25;14.55;;;;;;;22.90;nan;100338.22;5037865;28;20429;-78
2023/04/17 11:22:20;;;;;;;19.17;14.23;;;;;;;22.90;nan;100343.56;5043015;28;20090;-79
2023/04/17 11:25:05;;;;;;;18.90;14.43;;;;;;;22.67;nan;100348.03;5042281;28;20127;-79
2023/04/17 11:27:50;;;;;;;19.77;14.27;;;;;;;21.70;nan;100345.19;5037863;28;20056;-79
2023/04/17 11:30:37;;;;;;;17.67;14.38;;;;;;;21.08;nan;100354.53;5040123;28;20075;-79
2023/04/17 11:33:20;;;;;;;20.27;14.38;;;;;;;20.89;nan;100351.97;5042276;28;20032;-80
2023/04/17 11:36:05;;;;;;;18.25;13.27;;;;;;;20.66;nan;100350.88;5037207;28;20067;-80
2023/04/17 11:38:50;;;;;;;26.35;16.48;;;;;;;20.29;nan;100353.69;5042102;28;20091;-80
2023/04/17 11:41:38;;;;;;;19.67;14.00;;;;;;;20.19;nan;100358.72;5040348;28;20044;-80
2023/04/17 11:44:23;;;;;;;17.02;14.30;;;;;;;20.11;nan;100360.69;5041737;28;20126;-80
2023/04/17 11:47:07;;;;;;;21.10;16.05;;;;;;;20.20;nan;100363.00;5040967;28;20044;-80
2023/04/17 11:49:52;;;;;;;17.70;14.27;;;;;;;20.25;nan;100366.63;5045552;28;20056;-79
2023/04/17 11:52:36;;;;;;;20.17;14.38;;;;;;;20.43;nan;100358.81;5040046;28;20064;-80
2023/04/17 11:55:20;;;;;;;18.23;13.82;;;;;;;20.80;nan;100361.34;5044192;28;20783;-80
2023/04/17 11:58:06;;;;;;;19.42;14.18;;;;;;;21.23;nan;100359.41;5039366;28;20134;-80
2023/04/17 12:01:05;;;;;;;19.20;16.40;;;;;;;21.71;nan;100348.66;5039186;28;20430;-80
2023/04/17 12:03:51;;;;;;;15.32;12.82;;;;;;;22.19;nan;100352.00;5042639;28;20086;-80
2023/04/17 12:06:36;;;;;;;16.48;13.07;;;;;;;22.72;nan;100349.16;5039164;28;20033;-80
2023/04/17 12:09:23;;;;;;;20.85;13.68;;;;;;;22.28;nan;100349.75;5039385;28;20052;-80
2023/04/17 12:12:07;;;;;;;15.05;13.48;;;;;;;22.78;nan;100350.88;5042540;28;20040;-81
2023/04/17 12:14:51;;;;;;;18.10;14.05;;;;;;;22.34;nan;100362.16;5039926;28;20067;-80
2023/04/17 12:17:35;;;;;;;14.88;13.23;;;;;;;22.24;nan;100360.13;5044980;28;20375;-80
2023/04/17 12:20:19;;;;;;;16.73;13.02;;;;;;;21.96;nan;100367.91;5039789;28;20079;-80
2023/04/17 12:23:05;;;;;;;19.67;14.23;;;;;;;22.00;nan;100365.53;5046876;28;20103;-80
2023/04/17 12:25:49;;;;;;;17.00;14.48;;;;;;;21.71;nan;100373.53;5043335;28;20099;-80
2023/04/17 12:28:36;;;;;;;19.67;15.20;;;;;;;20.51;nan;100374.50;5043352;28;20055;-81
2023/04/17 12:31:20;;;;;;;20.90;14.10;;;;;;;19.55;nan;100379.34;5042076;28;20054;-80
2023/04/17 12:34:05;;;;;;;17.75;15.13;;;;;;;19.07;nan;100388.00;5037684;28;20095;-80
2023/04/17 12:36:49;;;;;;;22.10;14.73;;;;;;;18.75;nan;100380.00;5040880;28;20412;-80
2023/04/17 12:39:34;;;;;;;21.75;16.15;;;;;;;18.51;nan;100385.09;5040508;28;20048;-80
2023/04/17 12:42:18;;;;;;;19.77;14.82;;;;;;;18.54;nan;100387.31;5043137;28;20052;-80
2023/04/17 12:45:03;;;;;;;24.13;15.18;;;;;;;18.90;nan;100391.16;5043705;28;20109;-80
2023/04/17 12:47:47;;;;;;;18.98;16.42;;;;;;;18.58;nan;100401.78;5035296;28;20045;-80
2023/04/17 12:50:31;;;;;;;20.88;15.82;;;;;;;18.85;nan;100390.97;5041128;28;20145;-80
2023/04/17 12:53:15;;;;;;;22.45;15.43;;;;;;;18.96;nan;100386.78;5043251;28;20123;-80